sensor_id;sensor_type;location;lat;lon;timestamp;temperature;humidity
8537;DHT22;4306;50.210;10.628;2022-09-16T00:00:52;13.70;99.90
8537;DHT22;4306;50.210;10.628;2022-09-16T00:03:20;13.70;99.90
8537;DHT22;4306;50.210;10.628;2022-09-16T00:05:49;13.70;99.90
8537;DHT22;4306;50.210;10.628;2022-09-16T00:08:17;13.70;99.90
8537;DHT22;4306;50.210;10.628;2022-09-16T00:10:45;13.70;99.90
8537;DHT22;4306;50.210;10.628;2022-09-16T00:13:12;13.70;99.90
8537;DHT22;4306;50.210;10.628;2022-09-16T00:15:41;13.70;99.90
8537;DHT22;4306;50.210;10.628;2022-09-16T00:18:10;13.70;99.90
8537;DHT22;4306;50.210;10.628;2022-09-16T00:20:42;13.70;99.90
8537;DHT22;4306;50.210;10.628;2022-09-16T00:23:09;13.60;99.90
8537;DHT22;4306;50.210;10.628;2022-09-16T00:25:36;13.60;99.90
8537;DHT22;4306;50.210;10.628;2022-09-16T00:28:03;13.60;99.90
8537;DHT22;4306;50.210;10.628;2022-09-16T00:30:30;13.60;99.90
8537;DHT22;4306;50.210;10.628;2022-09-16T00:32:57;13.60;99.90
8537;DHT22;4306;50.210;10.628;2022-09-16T00:35:25;13.60;99.90
8537;DHT22;4306;50.210;10.628;2022-09-16T00:37:52;13.50;99.90
8537;DHT22;4306;50.210;10.628;2022-09-16T00:40:19;13.50;99.90
8537;DHT22;4306;50.210;10.628;2022-09-16T00:42:46;13.80;99.90
8537;DHT22;4306;50.210;10.628;2022-09-16T00:45:15;13.40;99.90
8537;DHT22;4306;50.210;10.628;2022-09-16T00:47:46;13.30;99.90
8537;DHT22;4306;50.210;10.628;2022-09-16T00:50:17;13.20;99.90
8537;DHT22;4306;50.210;10.628;2022-09-16T00:52:47;13.30;99.90
8537;DHT22;4306;50.210;10.628;2022-09-16T00:55:18;13.20;99.90
8537;DHT22;4306;50.210;10.628;2022-09-16T00:57:47;13.30;99.90
8537;DHT22;4306;50.210;10.628;2022-09-16T01:00:15;13.20;99.90
8537;DHT22;4306;50.210;10.628;2022-09-16T01:02:43;13.30;99.90
8537;DHT22;4306;50.210;10.628;2022-09-16T01:05:13;13.20;99.90
8537;DHT22;4306;50.210;10.628;2022-09-16T01:07:44;13.20;99.90
8537;DHT22;4306;50.210;10.628;2022-09-16T01:10:14;13.20;99.90
8537;DHT22;4306;50.210;10.628;2022-09-16T01:12:43;13.10;99.90
8537;DHT22;4306;50.210;10.628;2022-09-16T01:15:11;13.10;99.90
8537;DHT22;4306;50.210;10.628;2022-09-16T01:17:56;13.20;99.90
8537;DHT22;4306;50.210;10.628;2022-09-16T01:27:08;13.20;99.90
8537;DHT22;4306;50.210;10.628;2022-09-16T01:30:12;13.10;99.90
8537;DHT22;4306;50.210;10.628;2022-09-16T01:32:52;13.00;99.90
8537;DHT22;4306;50.210;10.628;2022-09-16T01:35:25;13.10;99.90
8537;DHT22;4306;50.210;10.628;2022-09-16T01:38:03;13.00;99.90
8537;DHT22;4306;50.210;10.628;2022-09-16T01:40:39;13.00;99.90
8537;DHT22;4306;50.210;10.628;2022-09-16T01:43:16;12.90;99.90
8537;DHT22;4306;50.210;10.628;2022-09-16T01:45:50;12.90;99.90
8537;DHT22;4306;50.210;10.628;2022-09-16T01:48:24;13.00;99.90
8537;DHT22;4306;50.210;10.628;2022-09-16T01:50:58;12.90;99.90
8537;DHT22;4306;50.210;10.628;2022-09-16T01:53:32;12.90;99.90
8537;DHT22;4306;50.210;10.628;2022-09-16T01:56:05;13.00;99.90
8537;DHT22;4306;50.210;10.628;2022-09-16T01:58:37;13.00;99.90
8537;DHT22;4306;50.210;10.628;2022-09-16T02:01:09;13.00;99.90
8537;DHT22;4306;50.210;10.628;2022-09-16T02:03:42;13.00;99.90
8537;DHT22;4306;50.210;10.628;2022-09-16T02:06:14;12.90;99.90
8537;DHT22;4306;50.210;10.628;2022-09-16T02:08:46;12.90;99.90
8537;DHT22;4306;50.210;10.628;2022-09-16T02:11:17;12.90;99.90
8537;DHT22;4306;50.210;10.628;2022-09-16T02:13:47;12.80;99.90
8537;DHT22;4306;50.210;10.628;2022-09-16T02:16:17;12.80;99.90
8537;DHT22;4306;50.210;10.628;2022-09-16T02:18:52;12.70;99.90
8537;DHT22;4306;50.210;10.628;2022-09-16T02:21:21;12.60;99.90
8537;DHT22;4306;50.210;10.628;2022-09-16T02:23:51;12.60;99.90
8537;DHT22;4306;50.210;10.628;2022-09-16T02:26:22;12.50;99.90
8537;DHT22;4306;50.210;10.628;2022-09-16T02:28:51;12.50;99.90
8537;DHT22;4306;50.210;10.628;2022-09-16T02:31:22;12.60;99.90
8537;DHT22;4306;50.210;10.628;2022-09-16T02:33:54;12.60;99.90
8537;DHT22;4306;50.210;10.628;2022-09-16T02:36:23;12.60;99.90
8537;DHT22;4306;50.210;10.628;2022-09-16T02:38:54;12.60;99.90
8537;DHT22;4306;50.210;10.628;2022-09-16T02:41:22;12.60;99.90
8537;DHT22;4306;50.210;10.628;2022-09-16T02:43:49;12.60;99.90
8537;DHT22;4306;50.210;10.628;2022-09-16T02:46:21;12.50;99.90
8537;DHT22;4306;50.210;10.628;2022-09-16T02:48:57;12.50;99.90
8537;DHT22;4306;50.210;10.628;2022-09-16T02:51:31;12.50;99.90
8537;DHT22;4306;50.210;10.628;2022-09-16T02:54:03;12.50;99.90
8537;DHT22;4306;50.210;10.628;2022-09-16T02:56:32;12.40;99.90
8537;DHT22;4306;50.210;10.628;2022-09-16T02:59:00;12.50;99.90
8537;DHT22;4306;50.210;10.628;2022-09-16T03:01:30;12.50;99.90
8537;DHT22;4306;50.210;10.628;2022-09-16T03:04:00;12.50;99.90
8537;DHT22;4306;50.210;10.628;2022-09-16T03:06:27;12.40;99.90
8537;DHT22;4306;50.210;10.628;2022-09-16T03:08:59;12.40;99.90
8537;DHT22;4306;50.210;10.628;2022-09-16T03:11:58;12.40;99.90
8537;DHT22;4306;50.210;10.628;2022-09-16T03:14:49;12.40;99.90
8537;DHT22;4306;50.210;10.628;2022-09-16T03:17:29;12.50;99.90
8537;DHT22;4306;50.210;10.628;2022-09-16T03:20:06;12.50;99.90
8537;DHT22;4306;50.210;10.628;2022-09-16T03:22:46;12.60;99.90
8537;DHT22;4306;50.210;10.628;2022-09-16T03:25:24;12.50;99.90
8537;DHT22;4306;50.210;10.628;2022-09-16T03:27:59;12.40;99.90
8537;DHT22;4306;50.210;10.628;2022-09-16T03:30:31;12.40;99.90
8537;DHT22;4306;50.210;10.628;2022-09-16T03:33:06;12.40;99.90
8537;DHT22;4306;50.210;10.628;2022-09-16T03:35:41;12.30;99.90
8537;DHT22;4306;50.210;10.628;2022-09-16T03:38:10;12.40;99.90
8537;DHT22;4306;50.210;10.628;2022-09-16T03:40:38;12.40;99.90
8537;DHT22;4306;50.210;10.628;2022-09-16T03:43:09;12.40;99.90
8537;DHT22;4306;50.210;10.628;2022-09-16T03:45:37;12.30;99.90
8537;DHT22;4306;50.210;10.628;2022-09-16T03:48:05;12.30;99.90
8537;DHT22;4306;50.210;10.628;2022-09-16T03:50:32;12.40;99.90
8537;DHT22;4306;50.210;10.628;2022-09-16T03:53:00;12.40;99.90
8537;DHT22;4306;50.210;10.628;2022-09-16T03:55:27;12.40;99.90
8537;DHT22;4306;50.210;10.628;2022-09-16T03:57:54;12.40;99.90
8537;DHT22;4306;50.210;10.628;2022-09-16T04:00:21;12.40;99.90
8537;DHT22;4306;50.210;10.628;2022-09-16T04:02:48;12.30;99.90
8537;DHT22;4306;50.210;10.628;2022-09-16T04:05:15;12.20;99.90
8537;DHT22;4306;50.210;10.628;2022-09-16T04:07:42;12.20;99.90
8537;DHT22;4306;50.210;10.628;2022-09-16T04:10:10;12.20;99.90
8537;DHT22;4306;50.210;10.628;2022-09-16T04:12:37;12.30;99.90
8537;DHT22;4306;50.210;10.628;2022-09-16T04:15:05;12.20;99.90
8537;DHT22;4306;50.210;10.628;2022-09-16T04:17:32;12.10;99.90
8537;DHT22;4306;50.210;10.628;2022-09-16T04:20:00;12.10;99.90
8537;DHT22;4306;50.210;10.628;2022-09-16T04:22:27;12.10;99.90
8537;DHT22;4306;50.210;10.628;2022-09-16T04:24:55;12.00;99.90
8537;DHT22;4306;50.210;10.628;2022-09-16T04:27:24;12.10;99.90
8537;DHT22;4306;50.210;10.628;2022-09-16T04:29:50;12.00;99.90
8537;DHT22;4306;50.210;10.628;2022-09-16T04:32:17;12.00;99.90
8537;DHT22;4306;50.210;10.628;2022-09-16T04:34:45;12.00;99.90
8537;DHT22;4306;50.210;10.628;2022-09-16T04:37:11;12.00;99.90
8537;DHT22;4306;50.210;10.628;2022-09-16T04:39:38;12.00;99.90
8537;DHT22;4306;50.210;10.628;2022-09-16T04:42:06;12.00;99.90
8537;DHT22;4306;50.210;10.628;2022-09-16T04:44:34;11.90;99.90
8537;DHT22;4306;50.210;10.628;2022-09-16T04:47:01;11.90;99.90
8537;DHT22;4306;50.210;10.628;2022-09-16T04:49:28;11.90;99.90
8537;DHT22;4306;50.210;10.628;2022-09-16T04:51:55;11.90;99.90
8537;DHT22;4306;50.210;10.628;2022-09-16T04:54:22;11.90;99.90
8537;DHT22;4306;50.210;10.628;2022-09-16T04:56:48;11.80;99.90
8537;DHT22;4306;50.210;10.628;2022-09-16T04:59:15;11.80;99.90
8537;DHT22;4306;50.210;10.628;2022-09-16T05:01:43;11.90;99.90
8537;DHT22;4306;50.210;10.628;2022-09-16T05:04:10;11.90;99.90
8537;DHT22;4306;50.210;10.628;2022-09-16T05:06:39;11.90;99.90
8537;DHT22;4306;50.210;10.628;2022-09-16T05:09:07;11.90;99.90
8537;DHT22;4306;50.210;10.628;2022-09-16T05:11:36;11.90;99.90
8537;DHT22;4306;50.210;10.628;2022-09-16T05:14:05;11.90;99.90
8537;DHT22;4306;50.210;10.628;2022-09-16T05:16:33;11.90;99.90
8537;DHT22;4306;50.210;10.628;2022-09-16T05:19:02;12.00;99.90
8537;DHT22;4306;50.210;10.628;2022-09-16T05:21:31;11.90;99.90
8537;DHT22;4306;50.210;10.628;2022-09-16T05:23:59;11.90;99.90
8537;DHT22;4306;50.210;10.628;2022-09-16T05:26:28;11.90;99.90
8537;DHT22;4306;50.210;10.628;2022-09-16T05:28:58;11.90;99.90
8537;DHT22;4306;50.210;10.628;2022-09-16T05:31:27;11.90;99.90
8537;DHT22;4306;50.210;10.628;2022-09-16T05:33:56;11.80;99.90
8537;DHT22;4306;50.210;10.628;2022-09-16T05:36:26;11.80;99.90
8537;DHT22;4306;50.210;10.628;2022-09-16T05:38:53;11.70;99.90
8537;DHT22;4306;50.210;10.628;2022-09-16T05:41:21;11.80;99.90
8537;DHT22;4306;50.210;10.628;2022-09-16T05:43:47;11.80;99.90
8537;DHT22;4306;50.210;10.628;2022-09-16T05:46:17;11.80;99.90
8537;DHT22;4306;50.210;10.628;2022-09-16T05:48:44;11.80;99.90
8537;DHT22;4306;50.210;10.628;2022-09-16T05:51:14;11.80;99.90
8537;DHT22;4306;50.210;10.628;2022-09-16T05:53:42;11.80;99.90
8537;DHT22;4306;50.210;10.628;2022-09-16T05:56:11;11.80;99.90
8537;DHT22;4306;50.210;10.628;2022-09-16T05:58:39;11.70;99.90
8537;DHT22;4306;50.210;10.628;2022-09-16T06:01:08;11.70;99.90
8537;DHT22;4306;50.210;10.628;2022-09-16T06:03:36;11.80;99.90
8537;DHT22;4306;50.210;10.628;2022-09-16T06:06:06;11.80;99.90
8537;DHT22;4306;50.210;10.628;2022-09-16T06:08:34;11.80;99.90
8537;DHT22;4306;50.210;10.628;2022-09-16T06:11:04;11.70;99.90
8537;DHT22;4306;50.210;10.628;2022-09-16T06:13:31;11.60;99.90
8537;DHT22;4306;50.210;10.628;2022-09-16T06:15:59;11.70;99.90
8537;DHT22;4306;50.210;10.628;2022-09-16T06:18:27;11.60;99.90
8537;DHT22;4306;50.210;10.628;2022-09-16T06:20:55;11.70;99.90
8537;DHT22;4306;50.210;10.628;2022-09-16T06:23:23;11.70;99.90
8537;DHT22;4306;50.210;10.628;2022-09-16T06:25:58;11.80;99.90
8537;DHT22;4306;50.210;10.628;2022-09-16T06:28:28;11.70;99.90
8537;DHT22;4306;50.210;10.628;2022-09-16T06:31:03;11.70;99.90
8537;DHT22;4306;50.210;10.628;2022-09-16T06:33:30;11.80;99.90
8537;DHT22;4306;50.210;10.628;2022-09-16T06:36:02;11.90;99.90
8537;DHT22;4306;50.210;10.628;2022-09-16T06:38:29;11.90;99.90
8537;DHT22;4306;50.210;10.628;2022-09-16T06:40:58;11.90;99.90
8537;DHT22;4306;50.210;10.628;2022-09-16T06:43:25;11.90;99.90
8537;DHT22;4306;50.210;10.628;2022-09-16T06:45:57;12.00;99.90
8537;DHT22;4306;50.210;10.628;2022-09-16T06:48:24;12.00;99.90
8537;DHT22;4306;50.210;10.628;2022-09-16T06:50:59;11.90;99.90
8537;DHT22;4306;50.210;10.628;2022-09-16T06:53:26;12.00;99.90
8537;DHT22;4306;50.210;10.628;2022-09-16T06:55:53;12.00;99.90
8537;DHT22;4306;50.210;10.628;2022-09-16T06:58:21;12.00;99.90
8537;DHT22;4306;50.210;10.628;2022-09-16T07:00:48;12.00;99.90
8537;DHT22;4306;50.210;10.628;2022-09-16T07:03:17;12.00;99.90
8537;DHT22;4306;50.210;10.628;2022-09-16T07:05:54;12.10;99.90
8537;DHT22;4306;50.210;10.628;2022-09-16T07:08:23;12.20;99.90
8537;DHT22;4306;50.210;10.628;2022-09-16T07:11:02;12.30;99.90
8537;DHT22;4306;50.210;10.628;2022-09-16T07:13:29;12.30;99.90
8537;DHT22;4306;50.210;10.628;2022-09-16T07:15:58;12.30;99.90
8537;DHT22;4306;50.210;10.628;2022-09-16T07:18:26;12.30;99.90
8537;DHT22;4306;50.210;10.628;2022-09-16T07:20:59;12.30;99.90
8537;DHT22;4306;50.210;10.628;2022-09-16T07:23:28;12.40;99.90
8537;DHT22;4306;50.210;10.628;2022-09-16T07:25:59;12.50;99.90
8537;DHT22;4306;50.210;10.628;2022-09-16T07:28:26;12.50;99.90
8537;DHT22;4306;50.210;10.628;2022-09-16T07:30:53;12.50;99.90
8537;DHT22;4306;50.210;10.628;2022-09-16T07:33:20;12.60;99.90
8537;DHT22;4306;50.210;10.628;2022-09-16T07:35:48;12.70;99.90
8537;DHT22;4306;50.210;10.628;2022-09-16T07:38:15;12.80;99.90
8537;DHT22;4306;50.210;10.628;2022-09-16T07:40:42;12.90;99.90
8537;DHT22;4306;50.210;10.628;2022-09-16T07:43:09;12.90;99.90
8537;DHT22;4306;50.210;10.628;2022-09-16T07:45:36;13.00;99.90
8537;DHT22;4306;50.210;10.628;2022-09-16T07:48:03;13.00;99.90
8537;DHT22;4306;50.210;10.628;2022-09-16T07:50:30;13.00;99.90
8537;DHT22;4306;50.210;10.628;2022-09-16T07:52:59;13.00;99.90
8537;DHT22;4306;50.210;10.628;2022-09-16T07:55:25;13.00;99.90
8537;DHT22;4306;50.210;10.628;2022-09-16T07:57:52;13.10;99.90
8537;DHT22;4306;50.210;10.628;2022-09-16T08:00:20;13.20;99.90
8537;DHT22;4306;50.210;10.628;2022-09-16T08:02:47;13.20;99.90
8537;DHT22;4306;50.210;10.628;2022-09-16T08:05:14;13.20;99.90
8537;DHT22;4306;50.210;10.628;2022-09-16T08:07:41;13.30;99.90
8537;DHT22;4306;50.210;10.628;2022-09-16T08:10:09;13.30;99.90
8537;DHT22;4306;50.210;10.628;2022-09-16T08:12:36;13.40;99.90
8537;DHT22;4306;50.210;10.628;2022-09-16T08:15:04;13.40;99.90
8537;DHT22;4306;50.210;10.628;2022-09-16T08:17:31;13.50;99.90
8537;DHT22;4306;50.210;10.628;2022-09-16T08:19:58;13.60;99.90
8537;DHT22;4306;50.210;10.628;2022-09-16T08:22:25;13.60;99.90
8537;DHT22;4306;50.210;10.628;2022-09-16T08:24:51;13.60;99.90
8537;DHT22;4306;50.210;10.628;2022-09-16T08:27:20;13.70;99.90
8537;DHT22;4306;50.210;10.628;2022-09-16T08:29:46;13.90;99.90
8537;DHT22;4306;50.210;10.628;2022-09-16T08:32:13;13.90;99.90
8537;DHT22;4306;50.210;10.628;2022-09-16T08:34:40;13.90;99.90
8537;DHT22;4306;50.210;10.628;2022-09-16T08:37:07;13.90;99.90
8537;DHT22;4306;50.210;10.628;2022-09-16T08:39:34;14.10;99.90
8537;DHT22;4306;50.210;10.628;2022-09-16T08:42:28;14.10;99.90
8537;DHT22;4306;50.210;10.628;2022-09-16T08:45:04;14.00;99.90
8537;DHT22;4306;50.210;10.628;2022-09-16T08:47:41;14.10;99.90
8537;DHT22;4306;50.210;10.628;2022-09-16T08:50:15;14.10;99.90
8537;DHT22;4306;50.210;10.628;2022-09-16T08:52:44;14.20;99.90
8537;DHT22;4306;50.210;10.628;2022-09-16T08:55:15;14.30;99.90
8537;DHT22;4306;50.210;10.628;2022-09-16T08:57:51;14.40;99.90
8537;DHT22;4306;50.210;10.628;2022-09-16T09:00:19;14.30;99.90
8537;DHT22;4306;50.210;10.628;2022-09-16T09:02:50;14.30;99.90
8537;DHT22;4306;50.210;10.628;2022-09-16T09:05:26;14.50;99.90
8537;DHT22;4306;50.210;10.628;2022-09-16T09:08:14;14.60;99.90
8537;DHT22;4306;50.210;10.628;2022-09-16T09:10:47;14.60;99.90
8537;DHT22;4306;50.210;10.628;2022-09-16T09:13:30;14.40;99.90
8537;DHT22;4306;50.210;10.628;2022-09-16T09:16:08;14.10;99.90
8537;DHT22;4306;50.210;10.628;2022-09-16T09:18:49;14.10;99.90
8537;DHT22;4306;50.210;10.628;2022-09-16T09:21:23;14.40;99.90
8537;DHT22;4306;50.210;10.628;2022-09-16T09:24:04;14.50;99.90
8537;DHT22;4306;50.210;10.628;2022-09-16T09:26:42;14.80;99.90
8537;DHT22;4306;50.210;10.628;2022-09-16T09:29:43;14.70;99.90
8537;DHT22;4306;50.210;10.628;2022-09-16T09:32:20;15.00;99.90
8537;DHT22;4306;50.210;10.628;2022-09-16T09:35:01;15.20;99.90
8537;DHT22;4306;50.210;10.628;2022-09-16T09:37:48;14.80;99.90
8537;DHT22;4306;50.210;10.628;2022-09-16T09:40:25;14.70;99.90
8537;DHT22;4306;50.210;10.628;2022-09-16T09:43:04;14.80;99.90
8537;DHT22;4306;50.210;10.628;2022-09-16T09:45:38;15.10;99.90
8537;DHT22;4306;50.210;10.628;2022-09-16T09:48:14;15.10;99.90
8537;DHT22;4306;50.210;10.628;2022-09-16T09:50:44;15.00;99.90
8537;DHT22;4306;50.210;10.628;2022-09-16T09:53:13;14.80;99.90
8537;DHT22;4306;50.210;10.628;2022-09-16T09:55:44;14.90;99.90
8537;DHT22;4306;50.210;10.628;2022-09-16T09:58:22;15.10;99.90
8537;DHT22;4306;50.210;10.628;2022-09-16T10:00:50;14.90;99.90
8537;DHT22;4306;50.210;10.628;2022-09-16T10:03:20;15.10;99.90
8537;DHT22;4306;50.210;10.628;2022-09-16T10:05:48;15.20;99.90
8537;DHT22;4306;50.210;10.628;2022-09-16T10:08:21;15.40;99.90
8537;DHT22;4306;50.210;10.628;2022-09-16T10:10:51;15.50;99.90
8537;DHT22;4306;50.210;10.628;2022-09-16T10:13:19;15.60;99.90
8537;DHT22;4306;50.210;10.628;2022-09-16T10:15:48;15.90;99.90
8537;DHT22;4306;50.210;10.628;2022-09-16T10:18:24;16.10;99.90
8537;DHT22;4306;50.210;10.628;2022-09-16T10:20:59;16.30;99.00
8537;DHT22;4306;50.210;10.628;2022-09-16T10:23:26;16.40;99.90
8537;DHT22;4306;50.210;10.628;2022-09-16T10:26:04;16.10;97.90
8537;DHT22;4306;50.210;10.628;2022-09-16T10:28:31;16.20;99.00
8537;DHT22;4306;50.210;10.628;2022-09-16T10:30:59;16.00;98.00
8537;DHT22;4306;50.210;10.628;2022-09-16T10:33:29;15.90;99.40
8537;DHT22;4306;50.210;10.628;2022-09-16T10:35:58;16.00;98.30
8537;DHT22;4306;50.210;10.628;2022-09-16T10:38:34;15.90;98.20
8537;DHT22;4306;50.210;10.628;2022-09-16T10:41:06;15.80;98.40
8537;DHT22;4306;50.210;10.628;2022-09-16T10:43:35;16.00;98.30
8537;DHT22;4306;50.210;10.628;2022-09-16T10:46:04;15.90;97.90
8537;DHT22;4306;50.210;10.628;2022-09-16T10:48:34;16.00;98.00
8537;DHT22;4306;50.210;10.628;2022-09-16T10:51:04;15.90;98.20
8537;DHT22;4306;50.210;10.628;2022-09-16T10:53:34;16.10;98.20
8537;DHT22;4306;50.210;10.628;2022-09-16T10:56:03;16.10;98.40
8537;DHT22;4306;50.210;10.628;2022-09-16T10:58:31;15.90;99.50
8537;DHT22;4306;50.210;10.628;2022-09-16T11:01:15;15.00;99.50
8537;DHT22;4306;50.210;10.628;2022-09-16T11:04:08;15.00;99.90
8537;DHT22;4306;50.210;10.628;2022-09-16T11:06:51;14.30;99.90
8537;DHT22;4306;50.210;10.628;2022-09-16T11:09:26;14.70;99.90
8537;DHT22;4306;50.210;10.628;2022-09-16T11:12:27;15.10;99.90
8537;DHT22;4306;50.210;10.628;2022-09-16T11:15:03;15.20;99.90
8537;DHT22;4306;50.210;10.628;2022-09-16T11:17:42;15.20;99.40
8537;DHT22;4306;50.210;10.628;2022-09-16T11:20:32;15.30;97.90
8537;DHT22;4306;50.210;10.628;2022-09-16T11:23:08;15.50;97.90
8537;DHT22;4306;50.210;10.628;2022-09-16T11:25:46;15.40;97.40
8537;DHT22;4306;50.210;10.628;2022-09-16T11:28:39;15.50;96.90
8537;DHT22;4306;50.210;10.628;2022-09-16T11:31:20;15.80;98.50
8537;DHT22;4306;50.210;10.628;2022-09-16T11:33:51;15.90;97.60
8537;DHT22;4306;50.210;10.628;2022-09-16T11:36:36;16.10;97.90
8537;DHT22;4306;50.210;10.628;2022-09-16T11:39:15;16.10;97.20
8537;DHT22;4306;50.210;10.628;2022-09-16T11:41:49;15.80;96.20
8537;DHT22;4306;50.210;10.628;2022-09-16T11:44:35;15.90;97.00
8537;DHT22;4306;50.210;10.628;2022-09-16T11:47:11;16.00;96.60
8537;DHT22;4306;50.210;10.628;2022-09-16T11:49:56;16.20;97.00
8537;DHT22;4306;50.210;10.628;2022-09-16T11:52:42;16.70;98.00
8537;DHT22;4306;50.210;10.628;2022-09-16T11:55:22;17.00;94.90
8537;DHT22;4306;50.210;10.628;2022-09-16T11:57:54;17.10;95.00
8537;DHT22;4306;50.210;10.628;2022-09-16T12:00:22;16.90;94.50
8537;DHT22;4306;50.210;10.628;2022-09-16T12:02:56;16.70;94.50
8537;DHT22;4306;50.210;10.628;2022-09-16T12:05:26;17.20;96.00
8537;DHT22;4306;50.210;10.628;2022-09-16T12:08:01;17.40;94.40
8537;DHT22;4306;50.210;10.628;2022-09-16T12:10:35;17.40;95.20
8537;DHT22;4306;50.210;10.628;2022-09-16T12:13:07;17.40;93.90
8537;DHT22;4306;50.210;10.628;2022-09-16T12:15:39;16.90;93.90
8537;DHT22;4306;50.210;10.628;2022-09-16T12:18:11;17.20;93.80
8537;DHT22;4306;50.210;10.628;2022-09-16T12:20:43;17.10;92.60
8537;DHT22;4306;50.210;10.628;2022-09-16T12:23:17;16.70;91.90
8537;DHT22;4306;50.210;10.628;2022-09-16T12:25:46;16.90;93.40
8537;DHT22;4306;50.210;10.628;2022-09-16T12:28:23;17.10;92.10
8537;DHT22;4306;50.210;10.628;2022-09-16T12:31:05;17.10;93.30
8537;DHT22;4306;50.210;10.628;2022-09-16T12:33:39;17.10;92.60
8537;DHT22;4306;50.210;10.628;2022-09-16T12:36:11;17.00;93.00
8537;DHT22;4306;50.210;10.628;2022-09-16T12:38:40;16.90;93.00
8537;DHT22;4306;50.210;10.628;2022-09-16T12:41:17;16.70;93.20
8537;DHT22;4306;50.210;10.628;2022-09-16T12:44:05;16.50;93.40
8537;DHT22;4306;50.210;10.628;2022-09-16T12:47:01;16.30;93.00
8537;DHT22;4306;50.210;10.628;2022-09-16T12:52:47;16.70;92.90
8537;DHT22;4306;50.210;10.628;2022-09-16T12:55:41;16.40;93.80
8537;DHT22;4306;50.210;10.628;2022-09-16T12:58:47;16.40;92.30
8537;DHT22;4306;50.210;10.628;2022-09-16T13:01:21;16.20;93.00
8537;DHT22;4306;50.210;10.628;2022-09-16T13:03:52;16.70;93.70
8537;DHT22;4306;50.210;10.628;2022-09-16T13:06:26;17.00;92.60
8537;DHT22;4306;50.210;10.628;2022-09-16T13:08:54;16.80;93.50
8537;DHT22;4306;50.210;10.628;2022-09-16T13:11:24;16.30;93.40
8537;DHT22;4306;50.210;10.628;2022-09-16T13:13:55;16.30;94.30
8537;DHT22;4306;50.210;10.628;2022-09-16T13:16:29;16.00;94.20
8537;DHT22;4306;50.210;10.628;2022-09-16T13:19:26;16.20;94.70
8537;DHT22;4306;50.210;10.628;2022-09-16T13:21:58;16.60;94.70
8537;DHT22;4306;50.210;10.628;2022-09-16T13:24:30;16.50;95.80
8537;DHT22;4306;50.210;10.628;2022-09-16T13:27:19;16.50;96.40
8537;DHT22;4306;50.210;10.628;2022-09-16T13:29:48;16.30;97.00
8537;DHT22;4306;50.210;10.628;2022-09-16T13:32:26;16.10;97.20
8537;DHT22;4306;50.210;10.628;2022-09-16T13:35:01;16.30;97.50
8537;DHT22;4306;50.210;10.628;2022-09-16T13:37:28;16.20;96.60
8537;DHT22;4306;50.210;10.628;2022-09-16T13:39:55;16.10;97.10
8537;DHT22;4306;50.210;10.628;2022-09-16T13:42:23;15.90;97.40
8537;DHT22;4306;50.210;10.628;2022-09-16T13:44:51;16.00;97.60
8537;DHT22;4306;50.210;10.628;2022-09-16T13:47:30;16.00;97.90
8537;DHT22;4306;50.210;10.628;2022-09-16T13:50:05;15.90;97.90
8537;DHT22;4306;50.210;10.628;2022-09-16T13:52:36;16.00;98.10
8537;DHT22;4306;50.210;10.628;2022-09-16T13:55:05;15.90;98.10
8537;DHT22;4306;50.210;10.628;2022-09-16T13:57:53;15.90;98.20
8537;DHT22;4306;50.210;10.628;2022-09-16T14:00:24;15.90;98.10
8537;DHT22;4306;50.210;10.628;2022-09-16T14:08:55;15.90;98.60
8537;DHT22;4306;50.210;10.628;2022-09-16T14:11:30;15.90;98.20
8537;DHT22;4306;50.210;10.628;2022-09-16T14:14:03;15.90;98.30
8537;DHT22;4306;50.210;10.628;2022-09-16T14:16:33;16.20;98.50
8537;DHT22;4306;50.210;10.628;2022-09-16T14:19:03;16.10;97.90
8537;DHT22;4306;50.210;10.628;2022-09-16T14:21:30;15.90;98.20
8537;DHT22;4306;50.210;10.628;2022-09-16T14:24:14;15.90;98.10
8537;DHT22;4306;50.210;10.628;2022-09-16T14:26:50;15.60;98.70
8537;DHT22;4306;50.210;10.628;2022-09-16T14:29:19;15.60;98.40
8537;DHT22;4306;50.210;10.628;2022-09-16T14:31:47;15.70;99.00
8537;DHT22;4306;50.210;10.628;2022-09-16T14:34:19;14.50;99.20
8537;DHT22;4306;50.210;10.628;2022-09-16T14:36:47;14.40;99.70
8537;DHT22;4306;50.210;10.628;2022-09-16T14:39:16;14.40;99.10
8537;DHT22;4306;50.210;10.628;2022-09-16T14:41:47;14.30;98.60
8537;DHT22;4306;50.210;10.628;2022-09-16T14:44:23;14.40;99.90
8537;DHT22;4306;50.210;10.628;2022-09-16T14:46:53;14.70;99.40
8537;DHT22;4306;50.210;10.628;2022-09-16T14:49:21;14.90;99.60
8537;DHT22;4306;50.210;10.628;2022-09-16T14:51:52;14.70;99.20
8537;DHT22;4306;50.210;10.628;2022-09-16T14:54:21;14.60;99.30
8537;DHT22;4306;50.210;10.628;2022-09-16T14:56:56;15.00;99.90
8537;DHT22;4306;50.210;10.628;2022-09-16T14:59:27;15.00;99.50
8537;DHT22;4306;50.210;10.628;2022-09-16T15:01:58;15.20;99.60
8537;DHT22;4306;50.210;10.628;2022-09-16T15:04:29;15.20;99.10
8537;DHT22;4306;50.210;10.628;2022-09-16T15:07:15;15.30;99.40
8537;DHT22;4306;50.210;10.628;2022-09-16T15:09:47;15.30;98.50
8537;DHT22;4306;50.210;10.628;2022-09-16T15:12:23;15.20;98.80
8537;DHT22;4306;50.210;10.628;2022-09-16T15:14:52;15.30;98.70
8537;DHT22;4306;50.210;10.628;2022-09-16T15:17:22;15.10;98.30
8537;DHT22;4306;50.210;10.628;2022-09-16T15:19:54;15.00;98.80
8537;DHT22;4306;50.210;10.628;2022-09-16T15:22:22;15.10;99.20
8537;DHT22;4306;50.210;10.628;2022-09-16T15:24:52;15.20;99.10
8537;DHT22;4306;50.210;10.628;2022-09-16T15:27:24;15.20;99.20
8537;DHT22;4306;50.210;10.628;2022-09-16T15:29:56;15.10;99.30
8537;DHT22;4306;50.210;10.628;2022-09-16T15:32:25;15.00;98.80
8537;DHT22;4306;50.210;10.628;2022-09-16T15:35:17;15.20;98.80
8537;DHT22;4306;50.210;10.628;2022-09-16T15:37:45;15.20;98.60
8537;DHT22;4306;50.210;10.628;2022-09-16T15:40:29;15.10;97.50
8537;DHT22;4306;50.210;10.628;2022-09-16T15:43:11;15.20;97.60
8537;DHT22;4306;50.210;10.628;2022-09-16T15:45:42;15.20;97.90
8537;DHT22;4306;50.210;10.628;2022-09-16T15:48:14;15.60;97.80
8537;DHT22;4306;50.210;10.628;2022-09-16T15:50:46;15.10;97.20
8537;DHT22;4306;50.210;10.628;2022-09-16T15:53:18;15.00;97.50
8537;DHT22;4306;50.210;10.628;2022-09-16T15:55:56;15.00;98.90
8537;DHT22;4306;50.210;10.628;2022-09-16T15:58:36;14.90;99.90
8537;DHT22;4306;50.210;10.628;2022-09-16T16:01:12;15.00;99.90
8537;DHT22;4306;50.210;10.628;2022-09-16T16:03:53;14.80;99.90
8537;DHT22;4306;50.210;10.628;2022-09-16T16:06:46;14.20;99.90
8537;DHT22;4306;50.210;10.628;2022-09-16T16:09:35;13.90;99.90
8537;DHT22;4306;50.210;10.628;2022-09-16T16:12:06;13.80;99.90
8537;DHT22;4306;50.210;10.628;2022-09-16T16:14:35;13.30;99.90
8537;DHT22;4306;50.210;10.628;2022-09-16T16:17:06;13.30;99.90
8537;DHT22;4306;50.210;10.628;2022-09-16T16:19:34;12.80;99.90
8537;DHT22;4306;50.210;10.628;2022-09-16T16:22:04;12.60;99.90
8537;DHT22;4306;50.210;10.628;2022-09-16T16:24:34;12.30;99.90
8537;DHT22;4306;50.210;10.628;2022-09-16T16:27:06;12.00;99.90
8537;DHT22;4306;50.210;10.628;2022-09-16T16:29:35;11.70;99.90
8537;DHT22;4306;50.210;10.628;2022-09-16T16:32:06;11.60;99.90